Time;durP1;ratioP1;P1;durP2;ratioP2;P2;SDS_P1;SDS_P2;PMS_P1;PMS_P2;Temp;Humidity;BMP_temperature;BMP_pressure;BME280_temperature;BME280_humidity;BME280_pressure;Samples;Min_cycle;Max_cycle;Signal;HPM_P1;HPM_P2
2022/01/31 00:41:09;;;;;;;13.70;4.88;;;5.00;1.00;;;;;;4878054;28;20240;-84
2022/01/31 03:58:29;;;;;;;15.43;6.18;;;4.40;1.00;;;;;;5017372;28;20239;-83
2022/01/31 04:13:47;;;;;;;;;;;;;;;;;;;;;
2022/01/31 04:55:50;;;;;;;20.08;7.00;;;4.20;1.00;;;;;;5038837;28;20226;-82
2022/01/31 04:58:57;;;;;;;16.15;5.72;;;4.30;1.00;;;;;;5040638;28;20232;-83
2022/01/31 05:05:25;;;;;;;19.55;5.35;;;4.20;1.00;;;;;;5013833;28;20236;-84
2022/01/31 05:07:54;;;;;;;17.63;5.22;;;4.20;1.00;;;;;;5034623;28;20223;-84
2022/01/31 05:10:23;;;;;;;16.77;6.38;;;4.20;1.00;;;;;;5036355;28;20261;-83
2022/01/31 05:12:52;;;;;;;15.88;6.10;;;4.20;1.00;;;;;;5040959;28;20223;-83
2022/01/31 05:15:22;;;;;;;21.02;5.20;;;4.10;1.00;;;;;;5034334;28;20226;-83
2022/01/31 05:17:52;;;;;;;16.45;6.30;;;4.20;1.00;;;;;;5035729;28;20238;-83
2022/01/31 05:20:25;;;;;;;19.92;5.30;;;4.20;1.00;;;;;;5040805;28;20241;-83
2022/01/31 05:22:55;;;;;;;21.27;6.95;;;4.10;1.00;;;;;;5035651;28;20226;-83
2022/01/31 05:25:30;;;;;;;24.15;6.63;;;4.10;1.00;;;;;;5041202;28;20308;-84
2022/01/31 05:27:59;;;;;;;20.58;6.70;;;4.20;1.00;;;;;;5046409;28;20222;-84
2022/01/31 05:30:39;;;;;;;17.90;5.35;;;4.20;1.00;;;;;;5048751;28;20230;-84
2022/01/31 05:33:06;;;;;;;17.00;6.10;;;4.10;1.00;;;;;;5040386;28;20221;-83
2022/01/31 05:35:34;;;;;;;17.85;7.30;;;4.10;1.00;;;;;;5038068;28;20229;-83
2022/01/31 05:38:04;;;;;;;24.42;6.57;;;4.10;1.00;;;;;;5033789;28;20229;-83
2022/01/31 05:40:42;;;;;;;18.98;6.90;;;4.10;1.00;;;;;;5039048;28;20376;-83
2022/01/31 05:43:14;;;;;;;17.63;6.18;;;4.00;1.00;;;;;;5041074;28;20276;-84
2022/01/31 05:45:56;;;;;;;16.90;5.75;;;4.00;1.00;;;;;;5036904;28;20313;-82
2022/01/31 05:48:27;;;;;;;18.70;6.75;;;3.90;1.00;;;;;;5048249;28;20233;-83
2022/01/31 05:50:58;;;;;;;22.40;7.15;;;3.90;1.00;;;;;;5042469;28;20252;-83
2022/01/31 05:53:33;;;;;;;20.48;7.18;;;4.00;1.00;;;;;;5039754;28;20336;-83
2022/01/31 05:56:00;;;;;;;25.85;7.35;;;4.00;1.00;;;;;;5039496;28;20242;-83
2022/01/31 05:58:31;;;;;;;21.80;7.30;;;4.00;1.00;;;;;;5032172;28;20226;-84
2022/01/31 06:01:01;;;;;;;25.88;6.32;;;4.10;1.00;;;;;;5041383;28;20229;-84
2022/01/31 06:03:31;;;;;;;20.33;6.60;;;4.00;1.00;;;;;;5044958;28;20247;-84
2022/01/31 06:05:58;;;;;;;18.83;5.95;;;4.00;1.00;;;;;;5044113;28;20232;-83
2022/01/31 06:08:27;;;;;;;22.08;7.60;;;3.90;1.00;;;;;;5044339;28;20342;-83
2022/01/31 06:10:58;;;;;;;24.98;8.05;;;3.90;1.00;;;;;;5056743;28;20852;-83
2022/01/31 06:13:31;;;;;;;21.10;7.63;;;3.80;1.00;;;;;;5044925;28;20222;-84
2022/01/31 06:15:59;;;;;;;17.55;6.38;;;3.70;1.00;;;;;;5037038;28;20238;-84
2022/01/31 06:18:37;;;;;;;23.38;7.10;;;3.70;1.00;;;;;;5036896;28;20233;-84
2022/01/31 06:21:12;;;;;;;23.60;11.82;;;3.70;1.00;;;;;;5039304;28;20240;-83
2022/01/31 06:24:10;;;;;;;17.63;6.63;;;3.80;1.00;;;;;;5048296;28;21595;-84
2022/01/31 06:30:41;;;;;;;21.27;6.85;;;3.80;1.00;;;;;;5057642;28;20244;-83
2022/01/31 06:33:43;;;;;;;19.27;6.45;;;3.70;1.00;;;;;;5064647;28;20206;-84
2022/01/31 06:39:22;;;;;;;17.35;7.20;;;3.70;1.00;;;;;;5045542;28;20213;-86
2022/01/31 06:41:51;;;;;;;17.50;6.20;;;3.70;1.00;;;;;;5032985;28;20762;-84
2022/01/31 06:44:19;;;;;;;18.10;6.03;;;3.70;1.00;;;;;;5043286;28;20304;-85
2022/01/31 06:46:45;;;;;;;22.35;6.82;;;3.70;1.00;;;;;;5034842;28;21786;-83
2022/01/31 06:55:22;;;;;;;19.10;5.35;;;3.70;1.00;;;;;;5036453;28;20266;-82
2022/01/31 07:16:15;;;;;;;25.20;7.32;;;3.50;1.00;;;;;;4964315;28;20233;-83
2022/01/31 07:19:05;;;;;;;19.67;7.15;;;3.50;1.00;;;;;;5045753;28;20328;-84
2022/01/31 07:26:00;;;;;;;13.75;5.10;;;3.50;1.00;;;;;;4922679;28;20409;-83
2022/01/31 07:29:08;;;;;;;17.73;5.90;;;3.40;1.00;;;;;;4987024;28;20235;-84
2022/01/31 07:31:38;;;;;;;16.02;5.15;;;3.40;1.00;;;;;;5069738;28;20220;-83
2022/01/31 07:34:33;;;;;;;17.77;5.80;;;3.40;1.00;;;;;;5066712;28;20232;-82
2022/01/31 07:40:28;;;;;;;26.10;6.28;;;3.40;1.00;;;;;;5061258;28;20224;-84
2022/01/31 07:46:01;;;;;;;19.63;6.15;;;3.50;1.00;;;;;;5064504;28;20222;-84
2022/01/31 07:52:31;;;;;;;16.75;5.95;;;3.50;1.00;;;;;;5031615;28;20236;-85
2022/01/31 07:55:01;;;;;;;20.48;5.93;;;3.50;1.00;;;;;;5065557;28;20279;-86
2022/01/31 08:01:06;;;;;;;23.48;6.57;;;3.50;1.00;;;;;;5066163;28;20228;-87
2022/01/31 08:03:47;;;;;;;16.88;7.05;;;3.60;1.00;;;;;;5061382;28;20263;-88
2022/01/31 08:06:42;;;;;;;14.77;5.97;;;3.60;1.00;;;;;;5058047;28;20217;-86
2022/01/31 08:29:19;;;;;;;16.17;6.15;;;3.90;1.00;;;;;;4829516;29;20251;-85
2022/01/31 08:36:52;;;;;;;27.42;9.73;;;3.90;1.00;;;;;;4780115;29;20238;-85
2022/01/31 09:05:54;;;;;;;29.27;7.78;;;4.20;1.00;;;;;;4910284;29;20234;-86
2022/01/31 09:19:49;;;;;;;15.57;5.40;;;4.50;1.00;;;;;;4948436;28;20227;-84
2022/01/31 10:25:22;;;;;;;19.75;7.20;;;6.30;1.00;;;;;;4966419;28;21391;-85
2022/01/31 10:32:17;;;;;;;;;;;;;;;;;;;;;
2022/01/31 10:54:37;;;;;;;14.70;5.95;;;5.70;1.00;;;;;;4866263;29;20232;-89
2022/01/31 10:57:15;;;;;;;21.08;7.35;;;5.60;1.00;;;;;;4885870;29;20356;-88
2022/01/31 10:59:47;;;;;;;17.00;6.15;;;5.60;1.00;;;;;;4926857;28;20247;-90
2022/01/31 11:03:01;;;;;;;15.05;6.85;;;5.60;1.00;;;;;;4944878;28;21060;-90
2022/01/31 11:08:45;;;;;;;16.45;6.53;;;5.40;1.00;;;;;;4947903;28;20229;-89
2022/01/31 11:11:19;;;;;;;18.25;6.22;;;5.50;1.00;;;;;;4950343;28;21760;-87
2022/01/31 12:22:12;;;;;;;20.00;8.10;;;9.90;1.00;;;;;;5001484;28;20234;-87
2022/01/31 12:28:08;;;;;;;18.70;6.90;;;9.80;1.00;;;;;;5068553;28;20499;-90
2022/01/31 12:36:55;;;;;;;18.40;7.00;;;9.40;1.00;;;;;;5059519;28;20408;-88
2022/01/31 12:39:58;;;;;;;21.33;7.43;;;9.10;1.00;;;;;;5061084;28;20435;-91
2022/01/31 12:46:11;;;;;;;19.95;7.20;;;8.30;1.00;;;;;;5046840;28;20645;-86
2022/01/31 12:48:47;;;;;;;15.82;7.60;;;8.20;1.00;;;;;;5020362;28;20225;-86
2022/01/31 12:51:23;;;;;;;17.95;7.93;;;8.10;1.00;;;;;;5055104;28;20228;-87
2022/01/31 13:20:27;;;;;;;21.05;8.50;;;7.80;1.00;;;;;;4798704;29;20366;-86
2022/01/31 13:27:16;;;;;;;11.95;5.53;;;8.20;1.00;;;;;;4862566;29;20784;-85
2022/01/31 13:29:46;;;;;;;18.98;7.15;;;8.40;1.00;;;;;;4926903;28;20249;-84
2022/01/31 13:32:30;;;;;;;22.23;7.80;;;8.40;1.00;;;;;;4991966;28;21001;-87
2022/01/31 13:35:00;;;;;;;14.40;7.55;;;8.30;1.00;;;;;;5071427;27;20232;-86
2022/01/31 13:40:45;;;;;;;15.43;6.88;;;8.20;1.00;;;;;;1359135;26;20265;-82
2022/01/31 13:43:23;;;;;;;28.25;9.10;;;8.30;1.00;;;;;;5060883;28;21073;-86
2022/01/31 13:46:09;;;;;;;15.23;6.15;;;8.40;1.00;;;;;;5056136;28;20286;-84
2022/01/31 13:48:51;;;;;;;13.43;6.10;;;8.40;1.00;;;;;;5056649;28;20241;-87
2022/01/31 13:51:57;;;;;;;17.70;8.05;;;8.30;1.00;;;;;;5041814;28;21016;-87
2022/01/31 14:39:09;;;;;;;17.95;7.45;;;7.40;1.00;;;;;;5028537;22;20239;-87
2022/01/31 14:41:52;;;;;;;20.75;8.45;;;7.40;1.00;;;;;;5021107;28;20231;-87
2022/01/31 14:47:20;;;;;;;20.42;8.02;;;7.40;1.00;;;;;;5020928;28;20725;-86
2022/01/31 14:50:08;;;;;;;16.05;6.82;;;7.30;1.00;;;;;;5023741;28;20450;-85
2022/01/31 14:52:39;;;;;;;24.05;8.23;;;7.10;1.00;;;;;;5022600;28;20225;-86
2022/01/31 15:05:56;;;;;;;12.05;6.80;;;6.90;1.00;;;;;;5024573;28;20234;-88
2022/01/31 15:11:59;;;;;;;15.77;7.60;;;6.60;1.00;;;;;;5015274;28;21260;-90
2022/01/31 15:14:35;;;;;;;22.13;8.07;;;6.60;1.00;;;;;;5023719;28;20219;-87
2022/01/31 15:17:26;;;;;;;20.65;6.90;;;6.50;1.00;;;;;;5022559;28;20245;-87
2022/01/31 16:14:51;;;;;;;15.05;6.38;;;5.40;1.00;;;;;;5115463;22;20226;-85
2022/01/31 18:15:56;;;;;;;23.27;8.52;;;4.80;1.00;;;;;;5030587;28;20263;-88
2022/01/31 18:26:52;;;;;;;19.50;7.43;;;4.80;1.00;;;;;;4997229;28;20261;-90
2022/01/31 18:30:01;;;;;;;19.55;9.40;;;4.60;1.00;;;;;;5025773;28;20237;-86
2022/01/31 18:32:49;;;;;;;22.38;9.00;;;4.50;1.00;;;;;;5037320;28;20277;-87
2022/01/31 19:01:58;;;;;;;25.80;9.23;;;3.40;1.00;;;;;;4931909;28;20229;-87
2022/01/31 19:08:08;;;;;;;23.95;11.05;;;3.30;1.00;;;;;;4904502;28;20249;-91
2022/01/31 19:11:00;;;;;;;21.65;9.02;;;3.20;1.00;;;;;;4917380;29;20310;-91
2022/01/31 19:16:35;;;;;;;32.47;10.73;;;3.10;1.00;;;;;;4887466;29;20258;-83
2022/01/31 19:19:03;;;;;;;23.38;9.25;;;3.00;1.00;;;;;;4927701;28;20231;-86
2022/01/31 19:21:30;;;;;;;22.27;8.77;;;3.00;1.00;;;;;;4918454;29;20230;-86
2022/01/31 19:23:57;;;;;;;23.83;9.55;;;3.00;1.00;;;;;;4911699;29;20234;-86
2022/01/31 19:26:24;;;;;;;23.70;9.70;;;3.00;1.00;;;;;;4921337;29;20210;-86
2022/01/31 19:28:53;;;;;;;23.50;10.20;;;3.00;1.00;;;;;;4934383;28;20244;-86
2022/01/31 19:31:21;;;;;;;25.00;8.38;;;2.90;1.00;;;;;;4932438;29;20222;-82
2022/01/31 19:33:48;;;;;;;22.13;8.90;;;2.90;1.00;;;;;;4922256;29;20238;-85
2022/01/31 19:36:15;;;;;;;24.75;8.75;;;2.80;1.00;;;;;;4930606;29;20219;-81
2022/01/31 19:38:59;;;;;;;22.05;8.90;;;2.80;1.00;;;;;;4923330;29;20231;-82
2022/01/31 19:44:45;;;;;;;27.25;9.48;;;2.90;1.00;;;;;;4926462;29;20237;-83
2022/01/31 19:47:12;;;;;;;21.30;8.80;;;3.00;1.00;;;;;;4908851;29;20238;-83
2022/01/31 19:49:39;;;;;;;23.58;11.00;;;3.10;1.00;;;;;;4897991;29;21147;-83
2022/01/31 19:52:06;;;;;;;21.70;7.82;;;3.20;1.00;;;;;;4895478;29;21709;-83
2022/01/31 19:54:34;;;;;;;32.63;12.05;;;3.30;1.00;;;;;;4902563;29;20233;-83
2022/01/31 19:57:01;;;;;;;22.20;8.88;;;3.40;1.00;;;;;;4904033;29;20238;-82
2022/01/31 19:59:28;;;;;;;23.42;8.30;;;3.30;1.00;;;;;;4890987;29;20267;-83
2022/01/31 20:01:57;;;;;;;24.65;9.07;;;3.40;1.00;;;;;;4908291;29;20250;-83
2022/01/31 20:04:24;;;;;;;19.77;8.05;;;3.40;1.00;;;;;;4903293;29;20266;-84
2022/01/31 20:06:50;;;;;;;20.73;8.85;;;3.50;1.00;;;;;;4916993;28;20231;-82
2022/01/31 20:09:23;;;;;;;21.90;9.00;;;3.50;1.00;;;;;;4900269;29;20237;-82
2022/01/31 20:11:57;;;;;;;35.92;16.50;;;3.50;1.00;;;;;;4896872;29;20758;-80
2022/01/31 20:14:24;;;;;;;19.60;10.43;;;3.50;1.00;;;;;;4903600;29;20259;-84
2022/01/31 20:16:51;;;;;;;17.77;9.50;;;3.60;1.00;;;;;;4915602;29;20238;-84
2022/01/31 20:19:21;;;;;;;25.00;9.05;;;3.60;1.00;;;;;;4927889;28;20245;-86
2022/01/31 20:21:49;;;;;;;24.60;8.65;;;3.60;1.00;;;;;;4912946;29;20230;-88
2022/01/31 20:24:21;;;;;;;22.45;8.10;;;3.60;1.00;;;;;;4909499;29;20242;-86
2022/01/31 20:26:52;;;;;;;20.13;8.02;;;3.60;1.00;;;;;;4911661;29;20713;-86
2022/01/31 20:29:20;;;;;;;25.67;7.72;;;3.60;1.00;;;;;;4906235;29;20298;-87
2022/01/31 20:31:49;;;;;;;26.58;9.93;;;3.60;1.00;;;;;;4916775;28;20222;-86
2022/01/31 20:34:16;;;;;;;23.00;8.13;;;3.60;1.00;;;;;;4923618;28;20253;-86
2022/01/31 20:36:49;;;;;;;17.10;7.70;;;3.60;1.00;;;;;;4903245;29;20230;-89
2022/01/31 20:39:19;;;;;;;20.08;7.85;;;3.60;1.00;;;;;;4902931;29;20313;-88
2022/01/31 20:41:47;;;;;;;26.27;8.18;;;3.50;1.00;;;;;;4907963;29;20237;-87
2022/01/31 20:44:16;;;;;;;19.23;7.78;;;3.60;1.00;;;;;;4908046;29;21192;-87
2022/01/31 20:46:45;;;;;;;24.52;8.20;;;3.60;1.00;;;;;;4934801;28;20234;-87
2022/01/31 20:49:16;;;;;;;16.67;8.15;;;3.60;1.00;;;;;;4934705;29;20226;-88
2022/01/31 20:51:46;;;;;;;24.75;10.82;;;3.60;1.00;;;;;;4935049;29;20238;-88
2022/01/31 20:54:14;;;;;;;22.38;9.45;;;3.70;1.00;;;;;;4952427;28;20234;-88
2022/01/31 20:56:41;;;;;;;22.90;7.50;;;3.70;1.00;;;;;;4936030;28;20238;-88
2022/01/31 20:59:08;;;;;;;21.08;9.13;;;3.70;1.00;;;;;;4913578;29;20369;-87
2022/01/31 21:01:36;;;;;;;31.75;11.30;;;3.70;1.00;;;;;;4912753;29;20306;-87
2022/01/31 21:04:02;;;;;;;26.98;9.07;;;3.80;1.00;;;;;;4909860;29;20241;-87
2022/01/31 21:06:29;;;;;;;20.00;8.18;;;3.80;1.00;;;;;;4911832;29;20230;-88
2022/01/31 21:08:59;;;;;;;30.08;8.88;;;3.80;1.00;;;;;;4916424;29;20239;-88
2022/01/31 21:11:29;;;;;;;19.52;7.60;;;3.80;1.00;;;;;;4912442;29;20227;-88
2022/01/31 21:13:57;;;;;;;21.38;9.13;;;3.90;1.00;;;;;;4913251;29;20226;-88
2022/01/31 21:16:26;;;;;;;24.52;8.75;;;3.80;1.00;;;;;;4923717;29;20257;-88
2022/01/31 21:18:53;;;;;;;25.15;8.38;;;3.80;1.00;;;;;;4930978;29;20214;-89
2022/01/31 21:21:21;;;;;;;21.48;7.90;;;3.80;1.00;;;;;;4943820;28;20230;-89
2022/01/31 21:23:50;;;;;;;22.45;7.63;;;3.80;1.00;;;;;;4910681;29;20242;-88
2022/01/31 21:26:19;;;;;;;21.48;10.48;;;3.80;1.00;;;;;;4924087;28;20349;-89
2022/01/31 21:28:51;;;;;;;18.27;7.25;;;3.80;1.00;;;;;;4910186;29;20226;-88
2022/01/31 21:31:21;;;;;;;21.30;8.20;;;3.80;1.00;;;;;;4908949;29;20317;-89
2022/01/31 21:33:51;;;;;;;24.83;8.55;;;3.80;1.00;;;;;;4918618;29;20230;-88
2022/01/31 21:36:22;;;;;;;20.10;7.93;;;3.80;1.00;;;;;;4916493;29;20332;-85
2022/01/31 21:38:50;;;;;;;20.83;8.35;;;3.90;1.00;;;;;;4921222;28;20246;-86
2022/01/31 21:41:18;;;;;;;22.00;8.10;;;3.90;1.00;;;;;;4915413;29;20287;-86
2022/01/31 21:43:45;;;;;;;21.17;8.30;;;3.90;1.00;;;;;;4917301;29;20313;-87
2022/01/31 21:46:13;;;;;;;18.55;6.65;;;3.90;1.00;;;;;;4929490;28;20709;-86
2022/01/31 21:48:43;;;;;;;20.35;9.85;;;3.90;1.00;;;;;;4913748;29;20238;-85
2022/01/31 21:51:09;;;;;;;20.20;7.97;;;3.90;1.00;;;;;;4915927;29;20230;-86
2022/01/31 21:53:40;;;;;;;18.52;7.53;;;3.80;1.00;;;;;;4913120;29;21121;-85
2022/01/31 21:56:07;;;;;;;21.52;8.57;;;3.90;1.00;;;;;;4930428;28;20233;-84
2022/01/31 21:58:36;;;;;;;18.08;6.22;;;3.90;1.00;;;;;;4913219;29;20261;-86
2022/01/31 22:01:04;;;;;;;23.52;7.20;;;3.90;1.00;;;;;;4927566;28;20261;-85
2022/01/31 22:03:31;;;;;;;17.05;7.20;;;3.90;1.00;;;;;;4916601;29;20238;-86
2022/01/31 22:06:02;;;;;;;15.10;6.40;;;3.90;1.00;;;;;;4927094;28;20253;-86
2022/01/31 22:08:39;;;;;;;15.63;6.80;;;3.90;1.00;;;;;;4920298;29;20790;-87
2022/01/31 22:11:40;;;;;;;22.23;7.47;;;3.80;1.00;;;;;;4931177;28;20938;-86
2022/01/31 22:14:00;;;;;;;21.30;6.65;;;3.80;1.00;;;;;;4932723;28;21960;-86
2022/01/31 22:16:29;;;;;;;17.85;7.88;;;3.80;1.00;;;;;;4917855;29;20229;-86
2022/01/31 22:18:56;;;;;;;18.80;8.07;;;3.80;1.00;;;;;;4923537;29;20249;-85
2022/01/31 22:21:23;;;;;;;23.15;8.35;;;3.70;1.00;;;;;;4918258;29;20242;-86
2022/01/31 22:23:50;;;;;;;19.00;6.78;;;3.70;1.00;;;;;;4919444;29;20250;-86
2022/01/31 22:26:18;;;;;;;21.83;8.38;;;3.70;1.00;;;;;;4925546;29;20218;-86
2022/01/31 22:28:45;;;;;;;16.35;7.70;;;3.70;1.00;;;;;;4927631;29;20225;-85
2022/01/31 22:31:14;;;;;;;14.90;7.35;;;3.70;1.00;;;;;;4917315;29;20282;-86
2022/01/31 22:33:48;;;;;;;18.23;7.47;;;3.70;1.00;;;;;;4939170;28;20303;-86
2022/01/31 22:36:15;;;;;;;16.52;7.45;;;3.70;1.00;;;;;;4930488;29;20214;-85
2022/01/31 22:38:43;;;;;;;24.48;6.55;;;3.60;1.00;;;;;;4924748;29;20229;-85
2022/01/31 22:41:10;;;;;;;17.77;7.15;;;3.50;1.00;;;;;;4935665;29;20226;-85
2022/01/31 22:43:38;;;;;;;14.30;6.07;;;3.50;1.00;;;;;;4929059;29;20230;-85
2022/01/31 22:46:05;;;;;;;22.83;7.20;;;3.50;1.00;;;;;;4925892;29;20248;-87
2022/01/31 22:48:33;;;;;;;22.35;8.50;;;3.50;1.00;;;;;;4948678;28;20238;-87
2022/01/31 22:51:01;;;;;;;24.63;7.55;;;3.50;1.00;;;;;;4948453;28;20258;-85
2022/01/31 22:53:29;;;;;;;17.80;6.07;;;3.50;1.00;;;;;;4937990;29;20234;-87
2022/01/31 22:55:56;;;;;;;16.08;5.65;;;3.50;1.00;;;;;;4930648;29;20218;-85
2022/01/31 22:58:23;;;;;;;16.90;7.30;;;3.40;1.00;;;;;;4931072;29;20259;-85
2022/01/31 23:00:50;;;;;;;17.98;7.35;;;3.40;1.00;;;;;;4940743;28;20236;-85
2022/01/31 23:03:17;;;;;;;16.27;6.00;;;3.40;1.00;;;;;;4925072;29;20310;-86
2022/01/31 23:05:46;;;;;;;20.65;6.82;;;3.40;1.00;;;;;;4929030;29;20242;-87
2022/01/31 23:08:13;;;;;;;19.45;7.00;;;3.40;1.00;;;;;;4928595;29;20266;-87
2022/01/31 23:10:40;;;;;;;17.60;6.25;;;3.40;1.00;;;;;;4926988;29;20281;-86
2022/01/31 23:13:09;;;;;;;15.38;6.72;;;3.40;1.00;;;;;;4924776;29;20286;-85
2022/01/31 23:15:42;;;;;;;15.43;5.88;;;3.30;1.00;;;;;;4930478;29;20246;-87
2022/01/31 23:18:15;;;;;;;18.90;6.78;;;3.30;1.00;;;;;;4943719;28;20301;-87
2022/01/31 23:21:06;;;;;;;18.42;6.55;;;3.30;1.00;;;;;;4940681;28;21010;-85
2022/01/31 23:43:22;;;;;;;13.25;5.78;;;3.10;1.00;;;;;;4933418;28;20222;-86
2022/01/31 23:54:08;;;;;;;16.67;7.07;;;3.10;1.00;;;;;;4889174;28;20229;-84
2022/01/31 23:59:42;;;;;;;20.92;8.02;;;3.10;1.00;;;;;;4907068;29;20233;-85
